createdAt,value
2019-01-05T00:02:18.749Z,95.40
2019-01-05T00:05:04.095Z,95.30
2019-01-05T00:07:49.649Z,95.40
2019-01-05T00:10:35.141Z,95.50
2019-01-05T00:13:20.784Z,95.30
2019-01-05T00:16:16.824Z,95.00
2019-01-05T00:19:15.638Z,94.90
2019-01-05T00:22:02.771Z,95.00
2019-01-05T00:24:49.615Z,95.10
2019-01-05T00:27:35.170Z,95.40
2019-01-05T00:30:25.177Z,95.70
2019-01-05T00:33:15.489Z,95.90
2019-01-05T00:36:27.722Z,96.20
2019-01-05T00:39:23.465Z,96.30
2019-01-05T00:42:08.978Z,96.20
2019-01-05T00:44:54.665Z,96.40
2019-01-05T00:47:47.732Z,96.50
2019-01-05T00:50:46.802Z,96.60
2019-01-05T00:53:39.525Z,96.60
2019-01-05T00:56:26.685Z,96.20
2019-01-05T00:59:19.298Z,95.80
2019-01-05T01:02:06.414Z,95.70
2019-01-05T01:04:56.354Z,95.90
2019-01-05T01:07:55.618Z,96.00
2019-01-05T01:10:34.837Z,95.70
2019-01-05T01:13:20.157Z,95.80
2019-01-05T01:16:02.766Z,96.00
2019-01-05T01:18:49.961Z,96.10
2019-01-05T01:21:40.166Z,96.00
2019-01-05T01:24:33.081Z,95.90
2019-01-05T01:27:25.189Z,96.00
2019-01-05T01:30:27.259Z,96.10
2019-01-05T01:33:12.990Z,96.20
2019-01-05T01:36:00.171Z,96.00
2019-01-05T01:38:50.448Z,96.00
2019-01-05T01:42:03.216Z,95.80
2019-01-05T01:44:59.326Z,95.70
2019-01-05T01:47:40.280Z,95.80
2019-01-05T01:50:39.238Z,95.80
2019-01-05T01:53:38.522Z,95.90
2019-01-05T01:56:29.220Z,96.20
2019-01-05T01:59:27.154Z,96.30
2019-01-05T02:02:20.632Z,96.30
2019-01-05T02:05:06.368Z,96.10
2019-01-05T02:08:02.473Z,96.30
2019-01-05T02:10:53.194Z,96.50
2019-01-05T02:13:40.791Z,96.70
2019-01-05T02:16:31.004Z,96.70
2019-01-05T02:19:41.958Z,96.80
2019-01-05T02:23:04.764Z,97.00
2019-01-05T02:26:27.802Z,97.10
2019-01-05T02:29:45.241Z,97.10
2019-01-05T02:33:14.396Z,97.10
2019-01-05T02:36:41.040Z,97.10
2019-01-05T02:40:19.125Z,96.90
2019-01-05T02:44:04.130Z,96.60
2019-01-05T02:47:27.093Z,96.30
2019-01-05T02:50:50.041Z,96.10
2019-01-05T02:54:26.081Z,96.20
2019-01-05T02:57:59.485Z,96.10
2019-01-05T03:01:23.343Z,96.00
2019-01-05T03:05:10.089Z,96.10
2019-01-05T03:08:37.889Z,96.00
2019-01-05T03:12:28.954Z,96.00
2019-01-05T03:16:05.521Z,95.90
2019-01-05T03:19:41.481Z,96.00
2019-01-05T03:22:59.081Z,96.20
2019-01-05T03:26:36.408Z,96.30
2019-01-05T03:29:48.709Z,96.50
2019-01-05T03:33:27.341Z,96.40
2019-01-05T03:36:51.765Z,96.60
2019-01-05T03:40:17.954Z,96.60
2019-01-05T03:43:47.713Z,96.50
2019-01-05T03:47:47.186Z,96.20
2019-01-05T03:51:06.317Z,96.20
2019-01-05T03:54:32.505Z,96.20
2019-01-05T03:58:26.957Z,95.90
2019-01-05T04:01:48.545Z,95.80
2019-01-05T04:05:25.042Z,95.80
2019-01-05T04:08:59.480Z,96.00
2019-01-05T04:12:29.551Z,96.20
2019-01-05T04:16:09.601Z,96.30
2019-01-05T04:19:48.270Z,96.30
2019-01-05T04:23:21.448Z,96.20
2019-01-05T04:27:03.050Z,96.20
2019-01-05T04:30:32.449Z,96.00
2019-01-05T04:34:19.997Z,95.90
2019-01-05T04:37:59.413Z,96.00
2019-01-05T04:41:29.801Z,96.00
2019-01-05T04:45:03.393Z,96.10
2019-01-05T04:48:30.852Z,96.10
2019-01-05T04:51:54.753Z,96.10
2019-01-05T04:55:19.498Z,96.10
2019-01-05T04:58:45.300Z,96.10
2019-01-05T05:02:13.926Z,96.20
2019-01-05T05:05:53.057Z,96.00
2019-01-05T05:09:35.386Z,95.80
2019-01-05T05:13:09.361Z,95.40
2019-01-05T05:16:40.065Z,95.40
2019-01-05T05:20:17.106Z,95.50
2019-01-05T05:23:37.856Z,95.90
2019-01-05T05:27:09.511Z,96.20
2019-01-05T05:30:41.736Z,96.40
2019-01-05T05:34:23.060Z,95.90
2019-01-05T05:37:56.017Z,95.70
2019-01-05T05:41:25.794Z,95.80
2019-01-05T05:44:59.720Z,95.90
2019-01-05T05:48:00.483Z,95.80
2019-01-05T05:51:19.621Z,95.60
2019-01-05T05:54:56.433Z,95.70
2019-01-05T05:58:13.485Z,95.90
2019-01-05T06:01:37.357Z,96.20
2019-01-05T06:05:23.113Z,96.40
2019-01-05T06:09:05.445Z,96.20
2019-01-05T06:12:42.493Z,96.00
2019-01-05T06:16:33.169Z,95.90
2019-01-05T06:19:58.557Z,95.80
2019-01-05T06:23:11.840Z,95.80
2019-01-05T06:26:53.453Z,95.80
2019-01-05T06:30:49.237Z,95.60
2019-01-05T06:34:11.466Z,95.60
2019-01-05T06:37:40.281Z,95.60
2019-01-05T06:41:19.200Z,95.50
2019-01-05T06:44:35.503Z,95.70
2019-01-05T06:48:11.462Z,95.90
2019-01-05T06:51:30.016Z,96.10
2019-01-05T06:54:52.754Z,96.20
2019-01-05T06:58:39.929Z,96.30
2019-01-05T07:02:22.934Z,96.30
2019-01-05T07:06:06.030Z,96.10
2019-01-05T07:09:41.527Z,95.50
2019-01-05T07:13:18.064Z,95.40
2019-01-05T07:17:00.468Z,95.40
2019-01-05T07:20:31.869Z,95.40
2019-01-05T07:24:14.644Z,95.80
2019-01-05T07:27:39.209Z,96.00
2019-01-05T07:31:04.952Z,96.20
2019-01-05T07:34:17.685Z,96.40
2019-01-05T07:37:56.546Z,96.30
2019-01-05T07:41:33.460Z,96.00
2019-01-05T07:45:07.984Z,95.80
2019-01-05T07:48:46.717Z,95.70
2019-01-05T07:52:10.109Z,95.90
2019-01-05T07:55:26.943Z,95.10
2019-01-05T07:59:17.505Z,95.00
2019-01-05T08:02:59.132Z,94.90
2019-01-05T08:06:30.980Z,94.40
2019-01-05T08:09:58.229Z,94.00
2019-01-05T08:13:21.042Z,93.60
2019-01-05T08:17:00.257Z,93.50
2019-01-05T08:20:48.300Z,93.50
2019-01-05T08:24:13.445Z,93.50
2019-01-05T08:28:02.449Z,93.50
2019-01-05T08:31:57.994Z,93.30
2019-01-05T08:35:22.810Z,93.10
2019-01-05T08:39:03.737Z,92.70
2019-01-05T08:42:40.149Z,92.30
2019-01-05T08:46:02.607Z,92.00
2019-01-05T08:49:40.864Z,91.30
2019-01-05T08:53:14.374Z,90.80
2019-01-05T08:56:51.213Z,90.70
2019-01-05T09:00:13.865Z,90.90
2019-01-05T09:03:35.301Z,91.50
2019-01-05T09:07:10.893Z,91.60
2019-01-05T09:11:02.825Z,91.30
2019-01-05T09:14:28.301Z,91.80
2019-01-05T09:17:44.971Z,92.50
2019-01-05T09:21:21.710Z,92.60
2019-01-05T09:24:55.553Z,92.60
2019-01-05T09:28:34.589Z,92.90
2019-01-05T09:32:08.697Z,92.80
2019-01-05T09:35:31.720Z,92.60
2019-01-05T09:38:56.718Z,92.50
2019-01-05T09:42:25.905Z,92.40
2019-01-05T09:46:12.068Z,92.50
2019-01-05T09:49:38.277Z,92.40
2019-01-05T09:53:07.017Z,91.90
2019-01-05T09:56:34.685Z,91.90
2019-01-05T10:00:06.102Z,91.70
2019-01-05T10:03:29.961Z,91.30
2019-01-05T10:06:59.793Z,91.30
2019-01-05T10:13:37.524Z,91.70
2019-01-05T10:17:30.205Z,91.70
2019-01-05T10:21:07.137Z,91.30
2019-01-05T10:24:35.741Z,91.60
2019-01-05T10:27:54.040Z,91.60
2019-01-05T10:31:25.383Z,91.50
2019-01-05T10:34:47.744Z,91.40
2019-01-05T10:38:08.935Z,91.30
2019-01-05T10:41:44.116Z,90.90
2019-01-05T10:45:21.133Z,90.70
2019-01-05T10:48:51.732Z,90.20
2019-01-05T10:52:38.683Z,90.40
2019-01-05T10:56:15.796Z,89.70
2019-01-05T11:00:09.921Z,89.20
2019-01-05T11:04:07.865Z,89.00
2019-01-05T11:07:16.954Z,88.30
2019-01-05T11:10:47.518Z,88.20
2019-01-05T11:14:27.418Z,87.70
2019-01-05T11:17:59.141Z,87.30
2019-01-05T11:21:25.397Z,87.60
2019-01-05T11:24:58.043Z,87.20
2019-01-05T11:28:29.361Z,87.00
2019-01-05T11:31:49.433Z,86.50
2019-01-05T11:35:19.245Z,86.40
2019-01-05T11:38:41.784Z,85.70
2019-01-05T11:42:14.501Z,85.80
2019-01-05T11:45:56.310Z,85.20
2019-01-05T11:49:27.042Z,84.10
2019-01-05T11:53:05.698Z,84.20
2019-01-05T11:56:34.696Z,83.40
2019-01-05T12:00:05.014Z,83.30
2019-01-05T12:03:42.821Z,82.80
2019-01-05T12:07:15.684Z,82.80
2019-01-05T12:10:53.079Z,81.70
2019-01-05T12:14:22.382Z,81.70
2019-01-05T12:17:56.249Z,82.30
2019-01-05T12:21:26.857Z,82.70
2019-01-05T12:25:10.465Z,83.40
2019-01-05T12:28:46.493Z,83.90
2019-01-05T12:32:08.733Z,82.70
2019-01-05T12:35:30.361Z,82.40
2019-01-05T12:39:02.317Z,82.00
2019-01-05T12:42:33.896Z,82.00
2019-01-05T12:46:23.873Z,82.10
2019-01-05T12:49:51.717Z,82.00
2019-01-05T12:53:39.028Z,82.40
2019-01-05T12:57:29.838Z,82.00
2019-01-05T13:01:16.561Z,82.10
2019-01-05T13:04:46.079Z,81.90
2019-01-05T13:08:12.625Z,81.50
2019-01-05T13:11:55.173Z,81.30
2019-01-05T13:15:46.141Z,81.10
2019-01-05T13:19:17.790Z,81.20
2019-01-05T13:22:45.300Z,81.00
2019-01-05T13:26:36.400Z,81.00
2019-01-05T13:30:13.837Z,80.80
2019-01-05T13:33:35.749Z,81.10
2019-01-05T13:37:12.050Z,81.10
2019-01-05T13:40:57.490Z,80.80
2019-01-05T13:44:05.756Z,80.90
2019-01-05T13:47:26.661Z,80.50
2019-01-05T13:51:09.199Z,81.00
2019-01-05T13:54:17.546Z,81.70
2019-01-05T13:57:08.853Z,81.20
2019-01-05T13:59:58.822Z,81.20
2019-01-05T14:02:44.329Z,81.20
2019-01-05T14:05:34.465Z,81.20
2019-01-05T14:08:30.637Z,80.70
2019-01-05T14:11:20.165Z,80.40
2019-01-05T14:14:25.689Z,80.50
2019-01-05T14:17:11.733Z,81.00
2019-01-05T14:20:14.046Z,81.20
2019-01-05T14:23:19.109Z,81.20
2019-01-05T14:26:12.025Z,81.10
2019-01-05T14:28:57.661Z,80.60
2019-01-05T14:31:59.937Z,80.90
2019-01-05T14:34:45.714Z,80.70
2019-01-05T14:37:32.886Z,80.90
2019-01-05T14:40:38.225Z,80.90
2019-01-05T14:43:43.440Z,81.40
2019-01-05T14:46:30.777Z,81.10
2019-01-05T14:49:17.913Z,80.90
2019-01-05T14:52:13.961Z,81.30
2019-01-05T14:54:59.921Z,81.80
2019-01-05T14:57:49.485Z,82.00
2019-01-05T15:00:39.173Z,81.90
2019-01-05T15:03:24.690Z,82.20
2019-01-05T15:06:06.621Z,82.50
2019-01-05T15:08:52.165Z,82.70
2019-01-05T15:11:42.370Z,83.00
2019-01-05T15:14:27.766Z,83.10
2019-01-05T15:17:27.101Z,83.50
2019-01-05T15:20:26.157Z,83.70
2019-01-05T15:23:10.458Z,83.70
2019-01-05T15:26:09.481Z,83.90
2019-01-05T15:29:02.084Z,83.90
2019-01-05T15:31:58.352Z,83.90
2019-01-05T15:34:54.838Z,84.20
2019-01-05T15:37:44.149Z,84.40
2019-01-05T15:40:30.339Z,84.70
2019-01-05T15:43:17.469Z,85.00
2019-01-05T15:46:20.200Z,85.10
2019-01-05T15:49:06.849Z,85.40
2019-01-05T15:51:59.821Z,85.80
2019-01-05T15:54:52.735Z,85.80
2019-01-05T15:57:42.582Z,86.00
2019-01-05T16:00:47.619Z,86.50
2019-01-05T16:03:33.267Z,87.00
2019-01-05T16:06:19.185Z,87.50
2019-01-05T16:09:18.129Z,87.70
2019-01-05T16:12:08.985Z,87.90
2019-01-05T16:14:54.697Z,88.20
2019-01-05T16:17:43.785Z,88.40
2019-01-05T16:20:40.008Z,88.60
2019-01-05T16:23:33.079Z,89.00
2019-01-05T16:26:19.410Z,89.40
2019-01-05T16:29:04.925Z,90.10
2019-01-05T16:31:50.613Z,90.30
2019-01-05T16:34:36.130Z,90.50
2019-01-05T16:37:25.883Z,90.50
2019-01-05T16:40:06.881Z,90.80
2019-01-05T16:43:11.954Z,91.00
2019-01-05T16:45:57.513Z,91.10
2019-01-05T16:48:56.712Z,91.30
2019-01-05T16:51:43.113Z,91.50
2019-01-05T16:54:32.173Z,91.60
2019-01-05T16:57:19.315Z,91.60
2019-01-05T17:00:18.801Z,91.60
2019-01-05T17:03:21.005Z,91.50
2019-01-05T17:06:17.333Z,91.40
2019-01-05T17:09:10.338Z,91.40
2019-01-05T17:12:07.783Z,91.40
2019-01-05T17:14:49.019Z,91.50
2019-01-05T17:17:36.161Z,91.80
2019-01-05T17:20:29.867Z,91.80
2019-01-05T17:23:15.553Z,92.00
2019-01-05T17:26:01.497Z,92.00
2019-01-05T17:28:57.713Z,92.10
2019-01-05T17:31:51.569Z,92.10
2019-01-05T17:34:37.167Z,92.10
2019-01-05T17:37:22.957Z,92.20
2019-01-05T17:40:09.241Z,92.30
2019-01-05T17:42:56.345Z,92.30
2019-01-05T17:45:42.098Z,92.20
2019-01-05T17:48:32.085Z,92.30
2019-01-05T17:51:19.712Z,92.30
2019-01-05T17:54:07.969Z,92.40
2019-01-05T17:56:58.864Z,92.60
2019-01-05T17:59:58.945Z,92.80
2019-01-05T18:02:46.195Z,92.80
2019-01-05T18:05:36.199Z,92.90
2019-01-05T18:08:41.424Z,92.90
2019-01-05T18:11:32.945Z,93.00
2019-01-05T18:14:18.549Z,93.10
2019-01-05T18:17:04.315Z,93.00
2019-01-05T18:19:50.079Z,93.10
2019-01-05T18:22:31.782Z,93.20
2019-01-05T18:25:19.111Z,93.20
2019-01-05T18:28:04.669Z,93.30
2019-01-05T18:30:57.959Z,93.20
2019-01-05T18:33:43.599Z,93.20
2019-01-05T18:36:24.223Z,93.30
2019-01-05T18:39:29.477Z,93.30
2019-01-05T18:42:16.613Z,93.30
2019-01-05T18:45:03.790Z,93.20
2019-01-05T18:47:50.912Z,93.20
2019-01-05T18:50:34.168Z,93.20
2019-01-05T18:53:21.327Z,93.30
2019-01-05T18:56:14.113Z,93.30
2019-01-05T18:59:16.280Z,93.30
2019-01-05T19:02:12.217Z,93.40
2019-01-05T19:05:12.263Z,93.40
2019-01-05T19:07:58.204Z,93.60
2019-01-05T19:10:59.606Z,93.70
2019-01-05T19:13:50.951Z,93.90
2019-01-05T19:16:52.243Z,93.90
2019-01-05T19:19:37.801Z,94.00
2019-01-05T19:22:23.877Z,94.20
2019-01-05T19:25:16.829Z,94.20
2019-01-05T19:27:57.289Z,94.20
2019-01-05T19:30:44.505Z,94.10
2019-01-05T19:33:31.652Z,93.90
2019-01-05T19:36:21.433Z,94.00
2019-01-05T19:39:06.937Z,94.00
2019-01-05T19:41:52.798Z,94.10
2019-01-05T19:44:38.526Z,94.60
2019-01-05T19:47:31.605Z,94.90
2019-01-05T19:50:36.738Z,95.00
2019-01-05T19:53:42.120Z,94.90
2019-01-05T19:56:28.197Z,94.90
2019-01-05T19:59:13.781Z,94.30
2019-01-05T20:01:59.146Z,94.20
2019-01-05T20:04:55.345Z,94.30
2019-01-05T20:07:47.908Z,94.50
2019-01-05T20:10:33.646Z,94.60
2019-01-05T20:13:23.597Z,94.70
2019-01-05T20:16:16.637Z,94.70
2019-01-05T20:19:19.013Z,94.60
2019-01-05T20:22:06.153Z,94.60
2019-01-05T20:25:02.184Z,94.80
2019-01-05T20:27:43.981Z,94.90
2019-01-05T20:30:29.735Z,94.90
2019-01-05T20:33:15.637Z,95.10
2019-01-05T20:36:01.345Z,95.10
2019-01-05T20:38:47.117Z,95.00
2019-01-05T20:41:33.158Z,94.90
2019-01-05T20:44:18.913Z,94.90
2019-01-05T20:47:11.917Z,94.90
2019-01-05T20:49:57.721Z,94.90
2019-01-05T20:52:50.871Z,95.00
2019-01-05T20:55:38.009Z,95.00
2019-01-05T20:58:32.325Z,94.90
2019-01-05T21:01:31.389Z,94.90
2019-01-05T21:04:16.927Z,95.00
2019-01-05T21:07:02.884Z,95.00
2019-01-05T21:09:56.979Z,95.10
2019-01-05T21:12:44.120Z,95.10
2019-01-05T21:15:34.109Z,95.30
2019-01-05T21:18:19.723Z,95.40
2019-01-05T21:21:09.621Z,95.60
2019-01-05T21:23:56.778Z,95.80
2019-01-05T21:26:42.398Z,96.00
2019-01-05T21:29:28.471Z,96.10
2019-01-05T21:32:24.645Z,96.30
2019-01-05T21:35:11.786Z,96.50
2019-01-05T21:38:16.825Z,96.40
2019-01-05T21:41:15.891Z,96.40
2019-01-05T21:44:03.030Z,96.40
2019-01-05T21:46:48.341Z,96.50
2019-01-05T21:49:34.229Z,96.40
2019-01-05T21:52:33.428Z,96.50
2019-01-05T21:55:26.414Z,96.60
2019-01-05T21:58:28.525Z,96.70
2019-01-05T22:01:14.238Z,96.70
2019-01-05T22:04:19.137Z,96.70
2019-01-05T22:07:12.162Z,96.70
2019-01-05T22:10:14.665Z,96.80
2019-01-05T22:13:00.497Z,96.90
2019-01-05T22:15:53.708Z,97.00
2019-01-05T22:18:53.467Z,97.00
2019-01-05T22:21:39.049Z,97.00
2019-01-05T22:24:26.214Z,97.10
2019-01-05T22:27:21.082Z,97.30
2019-01-05T22:30:06.525Z,97.00
2019-01-05T22:32:53.710Z,96.60
2019-01-05T22:35:46.973Z,96.20
2019-01-05T22:38:33.010Z,95.90
2019-01-05T22:41:36.053Z,95.70
2019-01-05T22:44:21.788Z,95.60
2019-01-05T22:47:10.947Z,95.40
2019-01-05T22:49:57.901Z,95.60
2019-01-05T22:52:45.091Z,95.80
2019-01-05T22:55:32.321Z,95.90
2019-01-05T23:01:05.199Z,95.80
2019-01-05T23:03:55.663Z,96.00
2019-01-05T23:06:42.858Z,96.00
2019-01-05T23:09:35.620Z,96.10
2019-01-05T23:12:31.413Z,96.10
2019-01-05T23:15:15.805Z,96.20
2019-01-05T23:18:07.254Z,96.10
2019-01-05T23:20:52.713Z,95.90
2019-01-05T23:23:38.721Z,95.70
2019-01-05T23:26:28.629Z,95.70
2019-01-05T23:29:15.049Z,95.40
2019-01-05T23:32:05.182Z,95.50
2019-01-05T23:35:01.041Z,95.50
2019-01-05T23:38:06.505Z,95.70
2019-01-05T23:41:18.791Z,95.80
2019-01-05T23:44:04.325Z,95.90
2019-01-05T23:46:44.985Z,96.10
2019-01-05T23:49:32.108Z,96.10
2019-01-05T23:52:15.431Z,96.00
2019-01-05T23:55:00.741Z,96.00
2019-01-05T23:57:46.546Z,95.90
